sensor_id;sensor_type;location;lat;lon;timestamp;pressure;altitude;pressure_sealevel;temperature;humidity
64388;BME280;50709;52.648;4.764;2022-07-06T00:01:34;102573.94;;;20.12;48.77
64388;BME280;50709;52.648;4.764;2022-07-06T00:04:01;102619.16;;;19.97;48.79
64388;BME280;50709;52.648;4.764;2022-07-06T00:06:27;102615.72;;;19.87;48.13
64388;BME280;50709;52.648;4.764;2022-07-06T00:08:52;102625.28;;;20.04;47.34
64388;BME280;50709;52.648;4.764;2022-07-06T00:11:17;102609.44;;;19.94;47.75
64388;BME280;50709;52.648;4.764;2022-07-06T00:13:43;102613.97;;;19.80;47.46
64388;BME280;50709;52.648;4.764;2022-07-06T00:16:08;102619.00;;;20.14;48.26
64388;BME280;50709;52.648;4.764;2022-07-06T00:18:34;102615.94;;;20.53;47.69
64388;BME280;50709;52.648;4.764;2022-07-06T00:20:59;102615.13;;;20.44;48.00
64388;BME280;50709;52.648;4.764;2022-07-06T00:23:25;102606.94;;;19.77;45.51
64388;BME280;50709;52.648;4.764;2022-07-06T00:25:50;102614.56;;;20.14;47.89
64388;BME280;50709;52.648;4.764;2022-07-06T00:28:15;102620.94;;;19.95;46.32
64388;BME280;50709;52.648;4.764;2022-07-06T00:30:41;102616.34;;;20.15;48.54
64388;BME280;50709;52.648;4.764;2022-07-06T00:33:07;102561.25;;;19.43;47.07
64388;BME280;50709;52.648;4.764;2022-07-06T00:35:33;102626.59;;;19.44;46.57
64388;BME280;50709;52.648;4.764;2022-07-06T00:37:59;102611.34;;;19.80;49.23
64388;BME280;50709;52.648;4.764;2022-07-06T00:40:24;102609.34;;;20.05;48.65
64388;BME280;50709;52.648;4.764;2022-07-06T00:42:50;102607.81;;;19.76;47.66
64388;BME280;50709;52.648;4.764;2022-07-06T00:45:16;102619.84;;;20.16;48.24
64388;BME280;50709;52.648;4.764;2022-07-06T00:47:43;102619.09;;;20.05;48.18
64388;BME280;50709;52.648;4.764;2022-07-06T00:50:10;102584.03;;;19.67;49.55
64388;BME280;50709;52.648;4.764;2022-07-06T00:52:40;102615.44;;;20.15;49.44
64388;BME280;50709;52.648;4.764;2022-07-06T00:55:05;102613.56;;;20.28;49.00
64388;BME280;50709;52.648;4.764;2022-07-06T00:57:31;102609.75;;;20.52;48.52
64388;BME280;50709;52.648;4.764;2022-07-06T00:59:56;102605.94;;;19.94;49.02
64388;BME280;50709;52.648;4.764;2022-07-06T01:02:22;102612.63;;;20.32;47.79
64388;BME280;50709;52.648;4.764;2022-07-06T01:04:47;102614.66;;;20.08;49.26
64388;BME280;50709;52.648;4.764;2022-07-06T01:07:13;102596.75;;;20.29;48.89
64388;BME280;50709;52.648;4.764;2022-07-06T01:09:38;102605.56;;;20.29;47.01
64388;BME280;50709;52.648;4.764;2022-07-06T01:12:04;102607.38;;;20.26;47.79
64388;BME280;50709;52.648;4.764;2022-07-06T01:14:30;102599.75;;;19.95;47.52
64388;BME280;50709;52.648;4.764;2022-07-06T01:16:56;102609.22;;;20.17;49.22
64388;BME280;50709;52.648;4.764;2022-07-06T01:19:22;102602.31;;;20.01;47.95
64388;BME280;50709;52.648;4.764;2022-07-06T01:21:47;102611.81;;;20.25;48.05
64388;BME280;50709;52.648;4.764;2022-07-06T01:24:13;102611.91;;;20.16;48.96
64388;BME280;50709;52.648;4.764;2022-07-06T01:26:38;102604.00;;;20.11;49.34
64388;BME280;50709;52.648;4.764;2022-07-06T01:29:04;102598.09;;;19.81;48.03
64388;BME280;50709;52.648;4.764;2022-07-06T01:31:29;102602.28;;;20.04;48.87
64388;BME280;50709;52.648;4.764;2022-07-06T01:33:56;102568.38;;;19.35;48.32
64388;BME280;50709;52.648;4.764;2022-07-06T01:36:22;102596.28;;;19.83;49.97
64388;BME280;50709;52.648;4.764;2022-07-06T01:38:49;102579.50;;;19.83;49.62
64388;BME280;50709;52.648;4.764;2022-07-06T01:41:16;102590.94;;;19.91;49.11
64388;BME280;50709;52.648;4.764;2022-07-06T01:43:41;102592.78;;;19.83;47.48
64388;BME280;50709;52.648;4.764;2022-07-06T01:46:07;102555.75;;;19.71;48.63
64388;BME280;50709;52.648;4.764;2022-07-06T01:48:32;102597.06;;;19.93;48.60
64388;BME280;50709;52.648;4.764;2022-07-06T01:50:58;102588.31;;;19.85;48.76
64388;BME280;50709;52.648;4.764;2022-07-06T01:53:23;102599.50;;;20.18;48.62
64388;BME280;50709;52.648;4.764;2022-07-06T01:55:49;102603.31;;;19.89;47.10
64388;BME280;50709;52.648;4.764;2022-07-06T01:58:14;102607.50;;;20.13;49.47
64388;BME280;50709;52.648;4.764;2022-07-06T02:00:40;102600.75;;;19.81;48.93
64388;BME280;50709;52.648;4.764;2022-07-06T02:03:05;102592.00;;;19.64;47.80
64388;BME280;50709;52.648;4.764;2022-07-06T02:05:30;102598.03;;;19.88;48.00
64388;BME280;50709;52.648;4.764;2022-07-06T02:07:56;102587.41;;;19.91;49.52
64388;BME280;50709;52.648;4.764;2022-07-06T02:10:22;102600.53;;;20.03;49.45
64388;BME280;50709;52.648;4.764;2022-07-06T02:12:47;102597.06;;;19.93;49.31
64388;BME280;50709;52.648;4.764;2022-07-06T02:15:13;102593.59;;;19.87;50.12
64388;BME280;50709;52.648;4.764;2022-07-06T02:17:38;102597.13;;;19.89;48.94
64388;BME280;50709;52.648;4.764;2022-07-06T02:20:05;102586.59;;;19.81;49.30
64388;BME280;50709;52.648;4.764;2022-07-06T02:22:31;102587.19;;;20.14;50.95
64388;BME280;50709;52.648;4.764;2022-07-06T02:24:56;102597.78;;;20.14;49.48
64388;BME280;50709;52.648;4.764;2022-07-06T02:27:21;102593.31;;;20.17;50.00
64388;BME280;50709;52.648;4.764;2022-07-06T02:29:47;102597.63;;;20.29;49.42
64388;BME280;50709;52.648;4.764;2022-07-06T02:32:12;102589.00;;;20.09;48.94
64388;BME280;50709;52.648;4.764;2022-07-06T02:34:37;102594.44;;;19.93;50.17
64388;BME280;50709;52.648;4.764;2022-07-06T02:37:03;102588.94;;;20.12;50.29
64388;BME280;50709;52.648;4.764;2022-07-06T02:39:28;102595.03;;;20.25;49.81
64388;BME280;50709;52.648;4.764;2022-07-06T02:41:54;102588.84;;;20.23;50.39
64388;BME280;50709;52.648;4.764;2022-07-06T02:44:19;102547.53;;;19.98;49.58
64388;BME280;50709;52.648;4.764;2022-07-06T02:46:44;102579.13;;;20.23;48.81
64388;BME280;50709;52.648;4.764;2022-07-06T02:49:10;102570.41;;;20.10;49.78
64388;BME280;50709;52.648;4.764;2022-07-06T02:51:35;102584.53;;;20.12;49.98
64388;BME280;50709;52.648;4.764;2022-07-06T02:54:01;102581.16;;;19.93;48.78
64388;BME280;50709;52.648;4.764;2022-07-06T02:56:26;102594.16;;;20.21;50.20
64388;BME280;50709;52.648;4.764;2022-07-06T02:58:53;102597.69;;;20.22;49.98
64388;BME280;50709;52.648;4.764;2022-07-06T03:01:18;102588.31;;;19.88;49.69
64388;BME280;50709;52.648;4.764;2022-07-06T03:03:44;102601.38;;;20.10;51.01
64388;BME280;50709;52.648;4.764;2022-07-06T03:06:09;102605.75;;;20.11;49.70
64388;BME280;50709;52.648;4.764;2022-07-06T03:08:35;102548.59;;;19.82;50.22
64388;BME280;50709;52.648;4.764;2022-07-06T03:11:00;102519.66;;;19.53;49.22
64388;BME280;50709;52.648;4.764;2022-07-06T03:13:27;102594.44;;;19.95;49.21
64388;BME280;50709;52.648;4.764;2022-07-06T03:15:52;102586.59;;;19.81;51.11
64388;BME280;50709;52.648;4.764;2022-07-06T03:18:17;102617.31;;;20.05;50.85
64388;BME280;50709;52.648;4.764;2022-07-06T03:20:43;102571.56;;;19.77;51.27
64388;BME280;50709;52.648;4.764;2022-07-06T03:23:08;102597.19;;;19.81;50.66
64388;BME280;50709;52.648;4.764;2022-07-06T03:25:33;102582.19;;;19.81;50.82
64388;BME280;50709;52.648;4.764;2022-07-06T03:27:59;102604.44;;;19.57;49.60
64388;BME280;50709;52.648;4.764;2022-07-06T03:30:24;102592.13;;;19.48;51.40
64388;BME280;50709;52.648;4.764;2022-07-06T03:32:49;102583.16;;;19.63;51.20
64388;BME280;50709;52.648;4.764;2022-07-06T03:35:15;102601.84;;;19.49;51.11
64388;BME280;50709;52.648;4.764;2022-07-06T03:37:40;102601.88;;;19.45;52.03
64388;BME280;50709;52.648;4.764;2022-07-06T03:40:08;102604.47;;;19.49;50.81
64388;BME280;50709;52.648;4.764;2022-07-06T03:42:35;102611.53;;;19.50;52.38
64388;BME280;50709;52.648;4.764;2022-07-06T03:45:01;102619.72;;;19.16;52.84
64388;BME280;50709;52.648;4.764;2022-07-06T03:47:26;102602.75;;;19.41;52.76
64388;BME280;50709;52.648;4.764;2022-07-06T03:49:52;102604.53;;;19.40;52.48
64388;BME280;50709;52.648;4.764;2022-07-06T03:52:17;102606.25;;;19.50;52.14
64388;BME280;50709;52.648;4.764;2022-07-06T03:54:42;102599.97;;;19.62;51.61
64388;BME280;50709;52.648;4.764;2022-07-06T03:57:07;102602.94;;;19.16;50.17
64388;BME280;50709;52.648;4.764;2022-07-06T03:59:33;102564.00;;;19.30;51.67
64388;BME280;50709;52.648;4.764;2022-07-06T04:01:58;102601.91;;;19.40;52.00
64388;BME280;50709;52.648;4.764;2022-07-06T04:04:23;102605.69;;;18.85;50.66
64388;BME280;50709;52.648;4.764;2022-07-06T04:06:49;102617.13;;;19.01;51.30
64388;BME280;50709;52.648;4.764;2022-07-06T04:09:14;102616.16;;;19.21;51.21
64388;BME280;50709;52.648;4.764;2022-07-06T04:11:39;102588.75;;;19.22;52.13
64388;BME280;50709;52.648;4.764;2022-07-06T04:14:05;102602.78;;;19.42;50.80
64388;BME280;50709;52.648;4.764;2022-07-06T04:16:30;102620.41;;;19.46;51.64
64388;BME280;50709;52.648;4.764;2022-07-06T04:18:56;102612.38;;;19.57;50.78
64388;BME280;50709;52.648;4.764;2022-07-06T04:21:21;102582.47;;;19.41;50.85
64388;BME280;50709;52.648;4.764;2022-07-06T04:23:46;102619.53;;;19.44;50.38
64388;BME280;50709;52.648;4.764;2022-07-06T04:26:12;102619.44;;;19.60;49.41
64388;BME280;50709;52.648;4.764;2022-07-06T04:28:38;102609.75;;;19.56;50.41
64388;BME280;50709;52.648;4.764;2022-07-06T04:31:03;102613.22;;;19.64;50.15
64388;BME280;50709;52.648;4.764;2022-07-06T04:33:29;102585.16;;;19.38;48.40
64388;BME280;50709;52.648;4.764;2022-07-06T04:35:54;102619.19;;;19.94;49.39
64388;BME280;50709;52.648;4.764;2022-07-06T04:38:20;102609.59;;;19.74;50.28
64388;BME280;50709;52.648;4.764;2022-07-06T04:40:45;102612.31;;;19.65;49.90
64388;BME280;50709;52.648;4.764;2022-07-06T04:43:12;102603.47;;;19.64;50.27
64388;BME280;50709;52.648;4.764;2022-07-06T04:45:37;102617.38;;;19.97;50.93
64388;BME280;50709;52.648;4.764;2022-07-06T04:48:03;102621.91;;;19.85;50.21
64388;BME280;50709;52.648;4.764;2022-07-06T04:50:28;102631.69;;;19.75;48.53
64388;BME280;50709;52.648;4.764;2022-07-06T04:52:54;102627.31;;;19.71;50.09
64388;BME280;50709;52.648;4.764;2022-07-06T04:55:19;102622.66;;;19.97;48.10
64388;BME280;50709;52.648;4.764;2022-07-06T04:57:45;102605.75;;;20.11;47.73
64388;BME280;50709;52.648;4.764;2022-07-06T05:00:11;102613.44;;;20.39;49.66
64388;BME280;50709;52.648;4.764;2022-07-06T05:02:36;102612.66;;;20.26;49.45
64388;BME280;50709;52.648;4.764;2022-07-06T05:05:01;102598.09;;;19.75;48.37
64388;BME280;50709;52.648;4.764;2022-07-06T05:07:27;102602.72;;;20.48;48.83
64388;BME280;50709;52.648;4.764;2022-07-06T05:09:54;102605.56;;;20.31;49.01
64388;BME280;50709;52.648;4.764;2022-07-06T05:12:20;102599.63;;;20.07;49.22
64388;BME280;50709;52.648;4.764;2022-07-06T05:14:45;102612.31;;;20.60;49.73
64388;BME280;50709;52.648;4.764;2022-07-06T05:17:11;102620.53;;;20.38;49.03
64388;BME280;50709;52.648;4.764;2022-07-06T05:19:36;102628.03;;;20.78;49.28
64388;BME280;50709;52.648;4.764;2022-07-06T05:22:01;102577.34;;;20.24;48.66
64388;BME280;50709;52.648;4.764;2022-07-06T05:24:27;102622.81;;;20.72;48.88
64388;BME280;50709;52.648;4.764;2022-07-06T05:26:52;102627.28;;;20.69;49.69
64388;BME280;50709;52.648;4.764;2022-07-06T05:29:17;102622.75;;;20.77;49.02
64388;BME280;50709;52.648;4.764;2022-07-06T05:31:43;102626.16;;;20.90;47.73
64388;BME280;50709;52.648;4.764;2022-07-06T05:34:08;102602.06;;;20.29;48.57
64388;BME280;50709;52.648;4.764;2022-07-06T05:36:33;102605.00;;;20.82;48.40
64388;BME280;50709;52.648;4.764;2022-07-06T05:38:59;102620.94;;;20.80;47.93
64388;BME280;50709;52.648;4.764;2022-07-06T05:41:24;102615.56;;;20.87;48.27
64388;BME280;50709;52.648;4.764;2022-07-06T05:43:49;102611.03;;;20.95;48.61
64388;BME280;50709;52.648;4.764;2022-07-06T05:46:15;102579.00;;;20.34;47.39
64388;BME280;50709;52.648;4.764;2022-07-06T05:48:40;102608.63;;;20.75;49.17
64388;BME280;50709;52.648;4.764;2022-07-06T05:51:24;102623.53;;;21.50;46.19
64388;BME280;50709;52.648;4.764;2022-07-06T05:53:49;102625.19;;;22.12;45.18
64388;BME280;50709;52.648;4.764;2022-07-06T05:56:15;102624.56;;;21.98;44.24
64388;BME280;50709;52.648;4.764;2022-07-06T05:58:40;102637.34;;;22.74;44.23
64388;BME280;50709;52.648;4.764;2022-07-06T06:01:05;102578.03;;;22.21;44.53
64388;BME280;50709;52.648;4.764;2022-07-06T06:03:33;102634.19;;;22.97;42.98
64388;BME280;50709;52.648;4.764;2022-07-06T06:05:58;102632.16;;;23.09;43.52
64388;BME280;50709;52.648;4.764;2022-07-06T06:08:23;102645.47;;;23.49;42.19
64388;BME280;50709;52.648;4.764;2022-07-06T06:10:49;102641.09;;;23.48;42.88
64388;BME280;50709;52.648;4.764;2022-07-06T06:13:14;102620.00;;;23.36;41.54
64388;BME280;50709;52.648;4.764;2022-07-06T06:15:39;102629.44;;;23.52;41.71
64388;BME280;50709;52.648;4.764;2022-07-06T06:18:05;102621.94;;;23.67;41.24
64388;BME280;50709;52.648;4.764;2022-07-06T06:20:30;102631.09;;;23.57;41.40
64388;BME280;50709;52.648;4.764;2022-07-06T06:22:57;102627.22;;;23.70;41.22
64388;BME280;50709;52.648;4.764;2022-07-06T06:25:30;102627.66;;;23.89;40.87
64388;BME280;50709;52.648;4.764;2022-07-06T06:27:56;102628.53;;;23.90;39.60
64388;BME280;50709;52.648;4.764;2022-07-06T06:30:21;102637.69;;;23.78;41.12
64388;BME280;50709;52.648;4.764;2022-07-06T06:32:47;102616.38;;;24.12;40.27
64388;BME280;50709;52.648;4.764;2022-07-06T06:35:12;102631.19;;;23.52;39.21
64388;BME280;50709;52.648;4.764;2022-07-06T06:37:37;102624.09;;;23.51;40.51
64388;BME280;50709;52.648;4.764;2022-07-06T06:40:05;102628.63;;;23.85;40.38
64388;BME280;50709;52.648;4.764;2022-07-06T06:42:31;102626.56;;;23.96;40.69
64388;BME280;50709;52.648;4.764;2022-07-06T06:44:57;102631.19;;;23.90;39.52
64388;BME280;50709;52.648;4.764;2022-07-06T06:47:23;102594.69;;;23.92;39.12
64388;BME280;50709;52.648;4.764;2022-07-06T06:49:48;102621.72;;;24.12;39.27
64388;BME280;50709;52.648;4.764;2022-07-06T06:52:14;102635.97;;;23.75;40.66
64388;BME280;50709;52.648;4.764;2022-07-06T06:54:39;102641.97;;;23.83;40.88
64388;BME280;50709;52.648;4.764;2022-07-06T06:57:05;102644.00;;;23.74;40.98
64388;BME280;50709;52.648;4.764;2022-07-06T06:59:30;102611.38;;;23.26;42.47
64388;BME280;50709;52.648;4.764;2022-07-06T07:01:55;102635.22;;;23.70;41.88
64388;BME280;50709;52.648;4.764;2022-07-06T07:04:21;102599.31;;;23.47;40.98
64388;BME280;50709;52.648;4.764;2022-07-06T07:06:46;102634.22;;;23.74;41.78
64388;BME280;50709;52.648;4.764;2022-07-06T07:09:11;102641.97;;;23.83;40.15
64388;BME280;50709;52.648;4.764;2022-07-06T07:11:37;102649.56;;;24.02;39.79
64388;BME280;50709;52.648;4.764;2022-07-06T07:14:02;102646.25;;;23.92;40.90
64388;BME280;50709;52.648;4.764;2022-07-06T07:16:28;102645.81;;;23.73;41.06
64388;BME280;50709;52.648;4.764;2022-07-06T07:18:53;102641.13;;;23.83;41.24
64388;BME280;50709;52.648;4.764;2022-07-06T07:21:19;102632.88;;;23.94;40.13
64388;BME280;50709;52.648;4.764;2022-07-06T07:23:44;102639.63;;;24.07;41.42
64388;BME280;50709;52.648;4.764;2022-07-06T07:26:10;102646.69;;;23.74;41.98
64388;BME280;50709;52.648;4.764;2022-07-06T07:28:35;102655.75;;;23.66;40.92
64388;BME280;50709;52.648;4.764;2022-07-06T07:31:00;102646.69;;;23.74;39.73
64388;BME280;50709;52.648;4.764;2022-07-06T07:33:26;102638.19;;;23.94;39.33
64388;BME280;50709;52.648;4.764;2022-07-06T07:35:51;102642.78;;;23.87;38.38
64388;BME280;50709;52.648;4.764;2022-07-06T07:38:16;102642.50;;;24.34;38.82
64388;BME280;50709;52.648;4.764;2022-07-06T07:40:42;102584.22;;;23.82;39.98
64388;BME280;50709;52.648;4.764;2022-07-06T07:43:07;102622.13;;;24.30;38.66
64388;BME280;50709;52.648;4.764;2022-07-06T07:45:32;102625.06;;;24.21;41.82
64388;BME280;50709;52.648;4.764;2022-07-06T07:47:58;102631.09;;;23.94;39.81
64388;BME280;50709;52.648;4.764;2022-07-06T07:50:23;102619.66;;;23.89;39.81
64388;BME280;50709;52.648;4.764;2022-07-06T07:52:49;102643.66;;;23.89;41.71
64388;BME280;50709;52.648;4.764;2022-07-06T07:55:14;102589.63;;;23.79;40.03
64388;BME280;50709;52.648;4.764;2022-07-06T07:57:39;102628.88;;;24.10;40.30
64388;BME280;50709;52.648;4.764;2022-07-06T08:00:05;102612.81;;;24.12;41.05
64388;BME280;50709;52.648;4.764;2022-07-06T08:02:31;102614.69;;;24.41;39.25
64388;BME280;50709;52.648;4.764;2022-07-06T08:04:56;102619.56;;;24.27;39.89
64388;BME280;50709;52.648;4.764;2022-07-06T08:07:22;102621.44;;;24.23;39.25
64388;BME280;50709;52.648;4.764;2022-07-06T08:09:47;102618.56;;;24.31;38.82
64388;BME280;50709;52.648;4.764;2022-07-06T08:12:12;102635.22;;;24.39;38.95
64388;BME280;50709;52.648;4.764;2022-07-06T08:14:38;102629.03;;;24.37;38.92
64388;BME280;50709;52.648;4.764;2022-07-06T08:17:04;102630.56;;;24.47;39.84
64388;BME280;50709;52.648;4.764;2022-07-06T08:19:29;102634.75;;;24.56;37.22
64388;BME280;50709;52.648;4.764;2022-07-06T08:21:56;102628.59;;;24.21;41.18
64388;BME280;50709;52.648;4.764;2022-07-06T08:24:22;102622.63;;;24.11;39.06
64388;BME280;50709;52.648;4.764;2022-07-06T08:26:47;102613.63;;;23.81;42.18
64388;BME280;50709;52.648;4.764;2022-07-06T08:29:13;102629.78;;;24.42;38.50
64388;BME280;50709;52.648;4.764;2022-07-06T08:31:38;102607.53;;;24.43;39.52
64388;BME280;50709;52.648;4.764;2022-07-06T08:34:04;102635.53;;;24.60;39.76
64388;BME280;50709;52.648;4.764;2022-07-06T08:36:30;102577.88;;;23.87;38.84
64388;BME280;50709;52.648;4.764;2022-07-06T08:38:55;102578.16;;;23.76;40.97
64388;BME280;50709;52.648;4.764;2022-07-06T08:41:23;102618.25;;;24.09;41.01
64388;BME280;50709;52.648;4.764;2022-07-06T08:43:50;102611.72;;;23.84;37.14
64388;BME280;50709;52.648;4.764;2022-07-06T08:46:16;102622.56;;;24.13;37.25
64388;BME280;50709;52.648;4.764;2022-07-06T08:48:41;102624.72;;;24.00;36.29
64388;BME280;50709;52.648;4.764;2022-07-06T08:51:07;102622.22;;;24.27;38.47
64388;BME280;50709;52.648;4.764;2022-07-06T08:53:33;102620.81;;;24.12;37.60
64388;BME280;50709;52.648;4.764;2022-07-06T08:55:59;102590.75;;;24.07;37.10
64388;BME280;50709;52.648;4.764;2022-07-06T08:58:25;102605.81;;;24.41;37.42
64388;BME280;50709;52.648;4.764;2022-07-06T09:00:52;102620.13;;;24.38;37.45
64388;BME280;50709;52.648;4.764;2022-07-06T09:03:18;102626.81;;;24.22;36.36
64388;BME280;50709;52.648;4.764;2022-07-06T09:05:45;102598.31;;;23.89;35.22
64388;BME280;50709;52.648;4.764;2022-07-06T09:08:11;102608.88;;;24.27;35.54
64388;BME280;50709;52.648;4.764;2022-07-06T09:10:36;102604.84;;;24.43;36.86
64388;BME280;50709;52.648;4.764;2022-07-06T09:13:04;102598.97;;;24.30;39.48
64388;BME280;50709;52.648;4.764;2022-07-06T09:15:30;102623.25;;;24.85;36.17
64388;BME280;50709;52.648;4.764;2022-07-06T09:17:56;102568.91;;;24.24;36.14
64388;BME280;50709;52.648;4.764;2022-07-06T09:20:22;102625.81;;;24.89;33.73
64388;BME280;50709;52.648;4.764;2022-07-06T09:22:48;102615.13;;;24.89;34.69
64388;BME280;50709;52.648;4.764;2022-07-06T09:25:14;102620.47;;;24.89;35.68
64388;BME280;50709;52.648;4.764;2022-07-06T09:27:46;102629.97;;;24.99;38.44
64388;BME280;50709;52.648;4.764;2022-07-06T09:30:20;102595.41;;;24.93;39.45
64388;BME280;50709;52.648;4.764;2022-07-06T09:32:50;102604.81;;;24.45;33.15
64388;BME280;50709;52.648;4.764;2022-07-06T09:35:27;102572.69;;;24.78;37.48
64388;BME280;50709;52.648;4.764;2022-07-06T09:38:13;102631.09;;;24.92;36.20
64388;BME280;50709;52.648;4.764;2022-07-06T09:40:44;102593.06;;;25.12;36.14
64388;BME280;50709;52.648;4.764;2022-07-06T09:43:16;102620.66;;;25.12;36.72
64388;BME280;50709;52.648;4.764;2022-07-06T09:45:44;102623.16;;;25.47;35.59
64388;BME280;50709;52.648;4.764;2022-07-06T09:48:12;102623.19;;;25.45;35.35
64388;BME280;50709;52.648;4.764;2022-07-06T09:50:42;102626.19;;;25.63;35.61
64388;BME280;50709;52.648;4.764;2022-07-06T09:53:09;102618.44;;;25.27;36.84
64388;BME280;50709;52.648;4.764;2022-07-06T09:55:34;102619.47;;;25.51;38.19
64388;BME280;50709;52.648;4.764;2022-07-06T09:58:00;102621.56;;;25.11;36.02
64388;BME280;50709;52.648;4.764;2022-07-06T10:00:25;102579.09;;;25.02;34.96
64388;BME280;50709;52.648;4.764;2022-07-06T10:02:51;102620.63;;;24.84;33.41
64388;BME280;50709;52.648;4.764;2022-07-06T10:05:18;102632.50;;;25.03;34.75
64388;BME280;50709;52.648;4.764;2022-07-06T10:07:49;102623.31;;;25.12;35.01
64388;BME280;50709;52.648;4.764;2022-07-06T10:10:15;102612.56;;;24.85;33.63
64388;BME280;50709;52.648;4.764;2022-07-06T10:12:42;102619.91;;;25.37;35.20
64388;BME280;50709;52.648;4.764;2022-07-06T10:15:10;102572.00;;;25.01;35.70
64388;BME280;50709;52.648;4.764;2022-07-06T10:17:38;102613.22;;;25.77;35.54
64388;BME280;50709;52.648;4.764;2022-07-06T10:20:04;102614.41;;;25.42;34.71
64388;BME280;50709;52.648;4.764;2022-07-06T10:22:30;102579.19;;;25.56;34.52
64388;BME280;50709;52.648;4.764;2022-07-06T10:24:56;102602.34;;;25.57;36.07
64388;BME280;50709;52.648;4.764;2022-07-06T10:27:24;102618.06;;;25.93;37.94
64388;BME280;50709;52.648;4.764;2022-07-06T10:29:49;102602.72;;;25.71;33.56
64388;BME280;50709;52.648;4.764;2022-07-06T10:32:18;102611.09;;;26.14;34.73
64388;BME280;50709;52.648;4.764;2022-07-06T10:34:45;102600.72;;;26.05;33.76
64388;BME280;50709;52.648;4.764;2022-07-06T10:37:22;102597.91;;;25.82;32.78
64388;BME280;50709;52.648;4.764;2022-07-06T10:39:49;102599.53;;;26.13;33.05
64388;BME280;50709;52.648;4.764;2022-07-06T10:42:42;102605.75;;;26.14;32.15
64388;BME280;50709;52.648;4.764;2022-07-06T10:45:13;102594.75;;;26.22;32.83
64388;BME280;50709;52.648;4.764;2022-07-06T10:47:41;102574.22;;;25.97;32.82
64388;BME280;50709;52.648;4.764;2022-07-06T10:50:07;102581.25;;;26.25;34.86
64388;BME280;50709;52.648;4.764;2022-07-06T10:52:52;102582.56;;;26.38;33.09
64388;BME280;50709;52.648;4.764;2022-07-06T10:55:34;102581.78;;;26.34;35.98
64388;BME280;50709;52.648;4.764;2022-07-06T10:58:01;102581.84;;;25.82;34.12
64388;BME280;50709;52.648;4.764;2022-07-06T11:00:47;102585.66;;;26.00;33.96
64388;BME280;50709;52.648;4.764;2022-07-06T11:06:23;102575.19;;;26.19;34.84
64388;BME280;50709;52.648;4.764;2022-07-06T11:13:59;102578.19;;;26.35;32.48
64388;BME280;50709;52.648;4.764;2022-07-06T11:16:28;102566.50;;;26.13;33.65
64388;BME280;50709;52.648;4.764;2022-07-06T11:19:03;102561.59;;;25.74;31.59
64388;BME280;50709;52.648;4.764;2022-07-06T11:21:45;102564.53;;;25.93;33.48
64388;BME280;50709;52.648;4.764;2022-07-06T11:24:16;102568.00;;;26.22;34.63
64388;BME280;50709;52.648;4.764;2022-07-06T11:26:44;102567.41;;;26.37;34.66
64388;BME280;50709;52.648;4.764;2022-07-06T11:29:11;102565.22;;;26.48;34.58
64388;BME280;50709;52.648;4.764;2022-07-06T11:31:39;102558.50;;;26.36;32.97
64388;BME280;50709;52.648;4.764;2022-07-06T11:34:06;102579.97;;;26.59;32.81
64388;BME280;50709;52.648;4.764;2022-07-06T11:36:32;102571.03;;;26.60;32.32
64388;BME280;50709;52.648;4.764;2022-07-06T11:38:57;102560.59;;;26.28;31.43
64388;BME280;50709;52.648;4.764;2022-07-06T11:41:23;102531.81;;;26.10;36.10
64388;BME280;50709;52.648;4.764;2022-07-06T11:43:48;102558.81;;;26.02;32.32
64388;BME280;50709;52.648;4.764;2022-07-06T11:46:19;102565.06;;;26.04;32.09
64388;BME280;50709;52.648;4.764;2022-07-06T11:48:49;102536.38;;;26.31;34.70
64388;BME280;50709;52.648;4.764;2022-07-06T11:51:15;102566.41;;;26.16;32.98
64388;BME280;50709;52.648;4.764;2022-07-06T11:53:52;102548.25;;;26.24;30.96
64388;BME280;50709;52.648;4.764;2022-07-06T11:56:18;102558.13;;;26.22;31.50
64388;BME280;50709;52.648;4.764;2022-07-06T11:58:49;102557.03;;;26.04;32.80
64388;BME280;50709;52.648;4.764;2022-07-06T12:01:15;102573.44;;;25.93;32.06
64388;BME280;50709;52.648;4.764;2022-07-06T12:03:42;102553.41;;;26.05;34.98
64388;BME280;50709;52.648;4.764;2022-07-06T12:06:19;102552.78;;;25.97;32.84
64388;BME280;50709;52.648;4.764;2022-07-06T12:08:50;102521.59;;;25.71;34.43
64388;BME280;50709;52.648;4.764;2022-07-06T12:11:27;102558.91;;;26.26;33.85
64388;BME280;50709;52.648;4.764;2022-07-06T12:13:54;102540.81;;;25.82;35.11
64388;BME280;50709;52.648;4.764;2022-07-06T12:16:20;102545.97;;;26.13;34.92
64388;BME280;50709;52.648;4.764;2022-07-06T12:18:48;102544.69;;;26.24;34.22
64388;BME280;50709;52.648;4.764;2022-07-06T12:21:17;102510.38;;;25.84;35.50
64388;BME280;50709;52.648;4.764;2022-07-06T12:23:49;102538.41;;;25.99;35.73
64388;BME280;50709;52.648;4.764;2022-07-06T12:26:17;102529.00;;;25.62;35.77
64388;BME280;50709;52.648;4.764;2022-07-06T12:28:43;102505.31;;;25.51;35.45
64388;BME280;50709;52.648;4.764;2022-07-06T12:31:09;102544.50;;;25.78;36.58
64388;BME280;50709;52.648;4.764;2022-07-06T12:33:35;102539.94;;;25.81;34.74
64388;BME280;50709;52.648;4.764;2022-07-06T12:36:11;102530.22;;;25.79;34.60
64388;BME280;50709;52.648;4.764;2022-07-06T12:38:44;102535.03;;;26.19;36.13
64388;BME280;50709;52.648;4.764;2022-07-06T12:41:10;102536.63;;;26.25;37.43
64388;BME280;50709;52.648;4.764;2022-07-06T12:43:41;102546.41;;;26.01;37.56
64388;BME280;50709;52.648;4.764;2022-07-06T12:48:55;102524.16;;;25.48;35.22
64388;BME280;50709;52.648;4.764;2022-07-06T12:51:21;102528.66;;;25.46;36.61
64388;BME280;50709;52.648;4.764;2022-07-06T12:53:47;102520.19;;;25.33;37.72
64388;BME280;50709;52.648;4.764;2022-07-06T12:56:12;102521.25;;;25.55;37.25
64388;BME280;50709;52.648;4.764;2022-07-06T12:58:38;102516.13;;;25.48;36.87